sensor_id;sensor_type;location;lat;lon;timestamp;P1;durP1;ratioP1;P2;durP2;ratioP2
50988;SDS011;37008;52.210;21.112;2024-01-10T00:02:04;88.60;;;36.13;;
50988;SDS011;37008;52.210;21.112;2024-01-10T00:04:29;79.45;;;35.53;;
50988;SDS011;37008;52.210;21.112;2024-01-10T00:06:55;95.00;;;37.35;;
50988;SDS011;37008;52.210;21.112;2024-01-10T00:09:20;82.43;;;35.97;;
50988;SDS011;37008;52.210;21.112;2024-01-10T00:11:46;83.55;;;34.67;;
50988;SDS011;37008;52.210;21.112;2024-01-10T00:14:11;88.65;;;34.85;;
50988;SDS011;37008;52.210;21.112;2024-01-10T00:16:37;82.53;;;35.08;;
50988;SDS011;37008;52.210;21.112;2024-01-10T00:19:03;84.47;;;34.78;;
50988;SDS011;37008;52.210;21.112;2024-01-10T00:21:28;82.43;;;35.85;;
50988;SDS011;37008;52.210;21.112;2024-01-10T00:23:54;81.15;;;35.28;;
50988;SDS011;37008;52.210;21.112;2024-01-10T00:26:19;85.95;;;33.88;;
50988;SDS011;37008;52.210;21.112;2024-01-10T00:28:45;75.32;;;32.88;;
50988;SDS011;37008;52.210;21.112;2024-01-10T00:31:11;72.00;;;31.73;;
50988;SDS011;37008;52.210;21.112;2024-01-10T00:33:38;72.80;;;31.98;;
50988;SDS011;37008;52.210;21.112;2024-01-10T00:36:04;80.13;;;32.67;;
50988;SDS011;37008;52.210;21.112;2024-01-10T00:38:29;74.68;;;33.75;;
50988;SDS011;37008;52.210;21.112;2024-01-10T00:40:55;86.07;;;35.80;;
50988;SDS011;37008;52.210;21.112;2024-01-10T00:43:21;68.57;;;29.23;;
50988;SDS011;37008;52.210;21.112;2024-01-10T00:45:47;76.03;;;33.00;;
50988;SDS011;37008;52.210;21.112;2024-01-10T00:48:12;82.30;;;34.85;;
50988;SDS011;37008;52.210;21.112;2024-01-10T00:50:38;80.53;;;34.60;;
50988;SDS011;37008;52.210;21.112;2024-01-10T00:53:03;79.20;;;34.17;;
50988;SDS011;37008;52.210;21.112;2024-01-10T00:55:29;75.03;;;32.25;;
50988;SDS011;37008;52.210;21.112;2024-01-10T00:57:54;84.47;;;32.28;;
50988;SDS011;37008;52.210;21.112;2024-01-10T01:00:20;84.95;;;33.28;;
50988;SDS011;37008;52.210;21.112;2024-01-10T01:02:46;86.00;;;33.03;;
50988;SDS011;37008;52.210;21.112;2024-01-10T01:05:11;72.88;;;31.77;;
50988;SDS011;37008;52.210;21.112;2024-01-10T01:07:37;71.22;;;30.98;;
50988;SDS011;37008;52.210;21.112;2024-01-10T01:10:02;76.35;;;32.85;;
50988;SDS011;37008;52.210;21.112;2024-01-10T01:12:28;80.78;;;32.05;;
50988;SDS011;37008;52.210;21.112;2024-01-10T01:14:54;74.88;;;32.25;;
50988;SDS011;37008;52.210;21.112;2024-01-10T01:17:20;76.03;;;31.17;;
50988;SDS011;37008;52.210;21.112;2024-01-10T01:19:45;78.65;;;31.80;;
50988;SDS011;37008;52.210;21.112;2024-01-10T01:22:11;74.72;;;31.90;;
50988;SDS011;37008;52.210;21.112;2024-01-10T01:24:36;74.70;;;30.70;;
50988;SDS011;37008;52.210;21.112;2024-01-10T01:27:02;76.43;;;31.55;;
50988;SDS011;37008;52.210;21.112;2024-01-10T01:29:28;75.68;;;31.73;;
50988;SDS011;37008;52.210;21.112;2024-01-10T01:31:54;74.30;;;32.28;;
50988;SDS011;37008;52.210;21.112;2024-01-10T01:34:19;79.47;;;32.40;;
50988;SDS011;37008;52.210;21.112;2024-01-10T01:36:45;73.32;;;33.55;;
50988;SDS011;37008;52.210;21.112;2024-01-10T01:39:11;74.88;;;35.28;;
50988;SDS011;37008;52.210;21.112;2024-01-10T01:41:38;84.95;;;34.70;;
50988;SDS011;37008;52.210;21.112;2024-01-10T01:44:04;80.68;;;34.13;;
50988;SDS011;37008;52.210;21.112;2024-01-10T01:46:29;91.05;;;38.42;;
50988;SDS011;37008;52.210;21.112;2024-01-10T01:48:56;90.90;;;38.28;;
50988;SDS011;37008;52.210;21.112;2024-01-10T01:51:21;82.82;;;36.83;;
50988;SDS011;37008;52.210;21.112;2024-01-10T01:53:48;80.70;;;36.97;;
50988;SDS011;37008;52.210;21.112;2024-01-10T01:56:15;89.68;;;37.75;;
50988;SDS011;37008;52.210;21.112;2024-01-10T01:58:41;89.72;;;37.95;;
50988;SDS011;37008;52.210;21.112;2024-01-10T02:01:09;95.30;;;39.35;;
50988;SDS011;37008;52.210;21.112;2024-01-10T02:03:35;86.05;;;37.58;;
50988;SDS011;37008;52.210;21.112;2024-01-10T02:06:01;96.13;;;40.00;;
50988;SDS011;37008;52.210;21.112;2024-01-10T02:08:29;98.22;;;39.45;;
50988;SDS011;37008;52.210;21.112;2024-01-10T02:10:57;96.18;;;38.90;;
50988;SDS011;37008;52.210;21.112;2024-01-10T02:13:23;91.22;;;39.75;;
50988;SDS011;37008;52.210;21.112;2024-01-10T02:15:49;89.53;;;38.40;;
50988;SDS011;37008;52.210;21.112;2024-01-10T02:18:16;95.75;;;39.10;;
50988;SDS011;37008;52.210;21.112;2024-01-10T02:20:45;91.70;;;38.53;;
50988;SDS011;37008;52.210;21.112;2024-01-10T02:23:11;87.93;;;38.05;;
50988;SDS011;37008;52.210;21.112;2024-01-10T02:25:37;89.40;;;37.28;;
50988;SDS011;37008;52.210;21.112;2024-01-10T02:28:03;97.15;;;37.42;;
50988;SDS011;37008;52.210;21.112;2024-01-10T02:30:30;90.40;;;39.35;;
50988;SDS011;37008;52.210;21.112;2024-01-10T02:32:55;92.97;;;35.72;;
50988;SDS011;37008;52.210;21.112;2024-01-10T02:35:22;93.00;;;39.67;;
50988;SDS011;37008;52.210;21.112;2024-01-10T02:37:49;88.95;;;38.00;;
50988;SDS011;37008;52.210;21.112;2024-01-10T02:40:17;93.82;;;39.67;;
50988;SDS011;37008;52.210;21.112;2024-01-10T02:42:43;87.53;;;37.28;;
50988;SDS011;37008;52.210;21.112;2024-01-10T02:45:09;94.45;;;35.25;;
50988;SDS011;37008;52.210;21.112;2024-01-10T02:47:35;79.85;;;35.28;;
50988;SDS011;37008;52.210;21.112;2024-01-10T02:50:02;81.13;;;37.20;;
50988;SDS011;37008;52.210;21.112;2024-01-10T02:52:29;90.50;;;36.65;;
50988;SDS011;37008;52.210;21.112;2024-01-10T02:54:54;79.50;;;36.88;;
50988;SDS011;37008;52.210;21.112;2024-01-10T02:57:20;93.28;;;36.95;;
50988;SDS011;37008;52.210;21.112;2024-01-10T02:59:46;92.07;;;38.50;;
50988;SDS011;37008;52.210;21.112;2024-01-10T03:02:11;93.30;;;38.55;;
50988;SDS011;37008;52.210;21.112;2024-01-10T03:04:37;85.97;;;36.08;;
50988;SDS011;37008;52.210;21.112;2024-01-10T03:07:03;96.63;;;37.40;;
50988;SDS011;37008;52.210;21.112;2024-01-10T03:09:28;93.72;;;37.90;;
50988;SDS011;37008;52.210;21.112;2024-01-10T03:11:54;90.13;;;37.20;;
50988;SDS011;37008;52.210;21.112;2024-01-10T03:14:19;81.05;;;36.72;;
50988;SDS011;37008;52.210;21.112;2024-01-10T03:16:45;83.05;;;36.65;;
50988;SDS011;37008;52.210;21.112;2024-01-10T03:19:11;87.45;;;37.92;;
50988;SDS011;37008;52.210;21.112;2024-01-10T03:21:36;95.47;;;38.67;;
50988;SDS011;37008;52.210;21.112;2024-01-10T03:24:02;97.95;;;39.58;;
50988;SDS011;37008;52.210;21.112;2024-01-10T03:26:28;91.95;;;38.55;;
50988;SDS011;37008;52.210;21.112;2024-01-10T03:28:55;95.82;;;40.13;;
50988;SDS011;37008;52.210;21.112;2024-01-10T03:31:21;90.32;;;39.15;;
50988;SDS011;37008;52.210;21.112;2024-01-10T03:33:47;100.43;;;41.47;;
50988;SDS011;37008;52.210;21.112;2024-01-10T03:36:14;87.03;;;39.10;;
50988;SDS011;37008;52.210;21.112;2024-01-10T03:38:41;89.85;;;39.50;;
50988;SDS011;37008;52.210;21.112;2024-01-10T03:41:06;99.88;;;39.70;;
50988;SDS011;37008;52.210;21.112;2024-01-10T03:43:32;92.70;;;42.15;;
50988;SDS011;37008;52.210;21.112;2024-01-10T03:45:58;93.40;;;39.70;;
50988;SDS011;37008;52.210;21.112;2024-01-10T03:48:23;92.80;;;38.67;;
50988;SDS011;37008;52.210;21.112;2024-01-10T03:50:49;100.93;;;42.85;;
50988;SDS011;37008;52.210;21.112;2024-01-10T03:53:15;100.32;;;42.95;;
50988;SDS011;37008;52.210;21.112;2024-01-10T03:55:41;96.55;;;42.88;;
50988;SDS011;37008;52.210;21.112;2024-01-10T03:58:06;98.82;;;42.33;;
50988;SDS011;37008;52.210;21.112;2024-01-10T04:00:32;111.85;;;46.55;;
50988;SDS011;37008;52.210;21.112;2024-01-10T04:02:58;95.93;;;42.30;;
50988;SDS011;37008;52.210;21.112;2024-01-10T04:05:24;103.57;;;43.50;;
50988;SDS011;37008;52.210;21.112;2024-01-10T04:07:50;98.57;;;40.58;;
50988;SDS011;37008;52.210;21.112;2024-01-10T04:10:16;96.20;;;40.35;;
50988;SDS011;37008;52.210;21.112;2024-01-10T04:12:42;99.45;;;40.72;;
50988;SDS011;37008;52.210;21.112;2024-01-10T04:15:08;107.32;;;39.33;;
50988;SDS011;37008;52.210;21.112;2024-01-10T04:17:34;87.70;;;39.15;;
50988;SDS011;37008;52.210;21.112;2024-01-10T04:20:00;89.82;;;37.78;;
50988;SDS011;37008;52.210;21.112;2024-01-10T04:22:27;90.93;;;38.92;;
50988;SDS011;37008;52.210;21.112;2024-01-10T04:24:52;87.05;;;40.08;;
50988;SDS011;37008;52.210;21.112;2024-01-10T04:27:18;90.53;;;38.33;;
50988;SDS011;37008;52.210;21.112;2024-01-10T04:29:44;98.03;;;43.00;;
50988;SDS011;37008;52.210;21.112;2024-01-10T04:32:12;90.72;;;36.85;;
50988;SDS011;37008;52.210;21.112;2024-01-10T04:34:38;87.97;;;37.85;;
50988;SDS011;37008;52.210;21.112;2024-01-10T04:37:04;91.20;;;38.25;;
50988;SDS011;37008;52.210;21.112;2024-01-10T04:39:31;91.13;;;39.85;;
50988;SDS011;37008;52.210;21.112;2024-01-10T04:41:57;92.75;;;37.35;;
50988;SDS011;37008;52.210;21.112;2024-01-10T04:44:23;90.68;;;41.13;;
50988;SDS011;37008;52.210;21.112;2024-01-10T04:46:49;91.35;;;41.83;;
50988;SDS011;37008;52.210;21.112;2024-01-10T04:49:14;95.28;;;39.97;;
50988;SDS011;37008;52.210;21.112;2024-01-10T04:51:40;89.07;;;38.15;;
50988;SDS011;37008;52.210;21.112;2024-01-10T04:54:06;84.13;;;37.45;;
50988;SDS011;37008;52.210;21.112;2024-01-10T04:56:31;95.45;;;39.53;;
50988;SDS011;37008;52.210;21.112;2024-01-10T04:58:57;92.25;;;38.25;;
50988;SDS011;37008;52.210;21.112;2024-01-10T05:01:23;88.32;;;39.60;;
50988;SDS011;37008;52.210;21.112;2024-01-10T05:03:48;93.47;;;38.40;;
50988;SDS011;37008;52.210;21.112;2024-01-10T05:06:14;88.68;;;38.20;;
50988;SDS011;37008;52.210;21.112;2024-01-10T05:08:40;96.90;;;41.55;;
50988;SDS011;37008;52.210;21.112;2024-01-10T05:11:05;101.88;;;43.53;;
50988;SDS011;37008;52.210;21.112;2024-01-10T05:13:31;91.90;;;39.53;;
50988;SDS011;37008;52.210;21.112;2024-01-10T05:15:57;98.15;;;40.60;;
50988;SDS011;37008;52.210;21.112;2024-01-10T05:18:23;87.93;;;39.15;;
50988;SDS011;37008;52.210;21.112;2024-01-10T05:20:48;101.95;;;40.97;;
50988;SDS011;37008;52.210;21.112;2024-01-10T05:23:15;91.57;;;40.17;;
50988;SDS011;37008;52.210;21.112;2024-01-10T05:25:40;91.10;;;41.00;;
50988;SDS011;37008;52.210;21.112;2024-01-10T05:28:06;90.38;;;39.13;;
50988;SDS011;37008;52.210;21.112;2024-01-10T05:30:31;99.30;;;40.50;;
50988;SDS011;37008;52.210;21.112;2024-01-10T05:32:57;86.60;;;37.10;;
50988;SDS011;37008;52.210;21.112;2024-01-10T05:35:23;95.72;;;41.28;;
50988;SDS011;37008;52.210;21.112;2024-01-10T05:37:51;98.90;;;42.08;;
50988;SDS011;37008;52.210;21.112;2024-01-10T05:40:17;103.85;;;42.65;;
50988;SDS011;37008;52.210;21.112;2024-01-10T05:42:43;97.50;;;41.65;;
50988;SDS011;37008;52.210;21.112;2024-01-10T05:45:09;93.63;;;40.50;;
50988;SDS011;37008;52.210;21.112;2024-01-10T05:47:35;103.03;;;41.97;;
50988;SDS011;37008;52.210;21.112;2024-01-10T05:50:01;94.47;;;41.03;;
50988;SDS011;37008;52.210;21.112;2024-01-10T05:52:27;104.88;;;43.08;;
50988;SDS011;37008;52.210;21.112;2024-01-10T05:54:52;93.70;;;39.30;;
50988;SDS011;37008;52.210;21.112;2024-01-10T05:57:18;97.53;;;39.38;;
50988;SDS011;37008;52.210;21.112;2024-01-10T05:59:44;93.63;;;41.45;;
50988;SDS011;37008;52.210;21.112;2024-01-10T06:02:09;102.97;;;40.90;;
50988;SDS011;37008;52.210;21.112;2024-01-10T06:04:35;111.35;;;43.13;;
50988;SDS011;37008;52.210;21.112;2024-01-10T06:07:01;101.40;;;43.70;;
50988;SDS011;37008;52.210;21.112;2024-01-10T06:09:27;105.07;;;43.95;;
50988;SDS011;37008;52.210;21.112;2024-01-10T06:11:52;97.65;;;42.40;;
50988;SDS011;37008;52.210;21.112;2024-01-10T06:14:18;106.50;;;42.35;;
50988;SDS011;37008;52.210;21.112;2024-01-10T06:16:44;104.40;;;44.42;;
50988;SDS011;37008;52.210;21.112;2024-01-10T06:19:10;107.00;;;44.63;;
50988;SDS011;37008;52.210;21.112;2024-01-10T06:21:36;116.45;;;46.10;;
50988;SDS011;37008;52.210;21.112;2024-01-10T06:24:02;107.13;;;43.10;;
50988;SDS011;37008;52.210;21.112;2024-01-10T06:26:28;105.07;;;45.30;;
50988;SDS011;37008;52.210;21.112;2024-01-10T06:28:54;103.05;;;43.92;;
50988;SDS011;37008;52.210;21.112;2024-01-10T06:31:20;105.20;;;44.85;;
50988;SDS011;37008;52.210;21.112;2024-01-10T06:33:46;111.28;;;44.47;;
50988;SDS011;37008;52.210;21.112;2024-01-10T06:36:12;113.05;;;44.47;;
50988;SDS011;37008;52.210;21.112;2024-01-10T06:38:38;105.00;;;47.17;;
50988;SDS011;37008;52.210;21.112;2024-01-10T06:41:08;129.07;;;49.83;;
50988;SDS011;37008;52.210;21.112;2024-01-10T06:43:34;100.60;;;43.17;;
50988;SDS011;37008;52.210;21.112;2024-01-10T06:46:01;111.90;;;46.60;;
50988;SDS011;37008;52.210;21.112;2024-01-10T06:48:28;101.78;;;45.55;;
50988;SDS011;37008;52.210;21.112;2024-01-10T06:50:54;95.57;;;43.00;;
50988;SDS011;37008;52.210;21.112;2024-01-10T06:53:20;110.63;;;38.65;;
50988;SDS011;37008;52.210;21.112;2024-01-10T06:55:46;107.13;;;44.75;;
50988;SDS011;37008;52.210;21.112;2024-01-10T06:58:14;98.93;;;41.90;;
50988;SDS011;37008;52.210;21.112;2024-01-10T07:00:40;105.55;;;42.97;;
50988;SDS011;37008;52.210;21.112;2024-01-10T07:03:05;105.35;;;43.53;;
50988;SDS011;37008;52.210;21.112;2024-01-10T07:05:31;102.45;;;43.17;;
50988;SDS011;37008;52.210;21.112;2024-01-10T07:07:57;106.07;;;45.13;;
50988;SDS011;37008;52.210;21.112;2024-01-10T07:10:23;103.53;;;42.65;;
50988;SDS011;37008;52.210;21.112;2024-01-10T07:12:53;106.53;;;45.95;;
50988;SDS011;37008;52.210;21.112;2024-01-10T07:15:19;113.72;;;43.17;;
50988;SDS011;37008;52.210;21.112;2024-01-10T07:17:44;110.72;;;44.30;;
50988;SDS011;37008;52.210;21.112;2024-01-10T07:20:10;112.13;;;44.47;;
50988;SDS011;37008;52.210;21.112;2024-01-10T07:22:37;103.97;;;45.45;;
50988;SDS011;37008;52.210;21.112;2024-01-10T07:25:08;114.53;;;45.03;;
50988;SDS011;37008;52.210;21.112;2024-01-10T07:27:35;103.28;;;44.47;;
50988;SDS011;37008;52.210;21.112;2024-01-10T07:30:07;113.10;;;46.80;;
50988;SDS011;37008;52.210;21.112;2024-01-10T07:32:40;113.40;;;47.25;;
50988;SDS011;37008;52.210;21.112;2024-01-10T07:35:06;106.72;;;46.58;;
50988;SDS011;37008;52.210;21.112;2024-01-10T07:37:34;105.53;;;44.95;;
50988;SDS011;37008;52.210;21.112;2024-01-10T07:40:04;115.60;;;44.78;;
50988;SDS011;37008;52.210;21.112;2024-01-10T07:42:34;114.15;;;47.67;;
50988;SDS011;37008;52.210;21.112;2024-01-10T07:45:01;109.35;;;46.67;;
50988;SDS011;37008;52.210;21.112;2024-01-10T07:47:29;111.70;;;47.50;;
50988;SDS011;37008;52.210;21.112;2024-01-10T07:49:58;105.55;;;45.25;;
50988;SDS011;37008;52.210;21.112;2024-01-10T07:52:24;101.15;;;43.83;;
50988;SDS011;37008;52.210;21.112;2024-01-10T07:54:49;110.32;;;45.95;;
50988;SDS011;37008;52.210;21.112;2024-01-10T07:57:15;112.18;;;44.47;;
50988;SDS011;37008;52.210;21.112;2024-01-10T07:59:43;110.95;;;44.40;;
50988;SDS011;37008;52.210;21.112;2024-01-10T08:02:09;104.30;;;45.50;;
50988;SDS011;37008;52.210;21.112;2024-01-10T08:04:36;105.13;;;42.38;;
50988;SDS011;37008;52.210;21.112;2024-01-10T08:07:02;96.65;;;42.60;;
50988;SDS011;37008;52.210;21.112;2024-01-10T08:09:28;93.20;;;42.67;;
50988;SDS011;37008;52.210;21.112;2024-01-10T08:11:54;107.20;;;43.42;;
50988;SDS011;37008;52.210;21.112;2024-01-10T08:14:20;91.10;;;41.63;;
50988;SDS011;37008;52.210;21.112;2024-01-10T08:16:45;92.57;;;42.92;;
50988;SDS011;37008;52.210;21.112;2024-01-10T08:19:11;92.15;;;38.25;;
50988;SDS011;37008;52.210;21.112;2024-01-10T08:21:37;107.72;;;43.45;;
50988;SDS011;37008;52.210;21.112;2024-01-10T08:24:03;96.05;;;42.70;;
50988;SDS011;37008;52.210;21.112;2024-01-10T08:26:32;101.20;;;44.05;;
50988;SDS011;37008;52.210;21.112;2024-01-10T08:28:58;101.35;;;42.40;;
50988;SDS011;37008;52.210;21.112;2024-01-10T08:31:23;89.75;;;41.70;;
50988;SDS011;37008;52.210;21.112;2024-01-10T08:33:49;95.93;;;43.53;;
50988;SDS011;37008;52.210;21.112;2024-01-10T08:36:15;109.30;;;43.30;;
50988;SDS011;37008;52.210;21.112;2024-01-10T08:38:41;100.65;;;44.28;;
50988;SDS011;37008;52.210;21.112;2024-01-10T08:41:07;93.10;;;44.22;;
50988;SDS011;37008;52.210;21.112;2024-01-10T08:43:36;104.38;;;46.20;;
50988;SDS011;37008;52.210;21.112;2024-01-10T08:46:02;86.20;;;38.15;;
50988;SDS011;37008;52.210;21.112;2024-01-10T08:48:29;73.53;;;32.40;;
50988;SDS011;37008;52.210;21.112;2024-01-10T08:50:55;100.65;;;45.42;;
50988;SDS011;37008;52.210;21.112;2024-01-10T08:53:21;98.85;;;46.00;;
50988;SDS011;37008;52.210;21.112;2024-01-10T08:55:47;105.40;;;45.78;;
50988;SDS011;37008;52.210;21.112;2024-01-10T08:58:15;110.15;;;45.25;;
50988;SDS011;37008;52.210;21.112;2024-01-10T09:00:41;103.88;;;45.20;;
50988;SDS011;37008;52.210;21.112;2024-01-10T09:03:07;92.65;;;41.42;;
50988;SDS011;37008;52.210;21.112;2024-01-10T09:05:32;108.47;;;46.67;;
50988;SDS011;37008;52.210;21.112;2024-01-10T09:07:58;111.38;;;48.78;;
50988;SDS011;37008;52.210;21.112;2024-01-10T09:10:23;106.28;;;46.10;;
50988;SDS011;37008;52.210;21.112;2024-01-10T09:12:54;104.63;;;46.97;;
50988;SDS011;37008;52.210;21.112;2024-01-10T09:15:20;111.38;;;50.10;;
50988;SDS011;37008;52.210;21.112;2024-01-10T09:17:46;98.90;;;47.10;;
50988;SDS011;37008;52.210;21.112;2024-01-10T09:20:12;97.55;;;46.97;;
50988;SDS011;37008;52.210;21.112;2024-01-10T09:22:38;116.45;;;47.88;;
50988;SDS011;37008;52.210;21.112;2024-01-10T09:25:05;107.82;;;48.13;;
50988;SDS011;37008;52.210;21.112;2024-01-10T09:27:31;112.53;;;46.90;;
50988;SDS011;37008;52.210;21.112;2024-01-10T09:30:00;105.57;;;47.05;;
50988;SDS011;37008;52.210;21.112;2024-01-10T09:32:34;106.20;;;47.78;;
50988;SDS011;37008;52.210;21.112;2024-01-10T09:35:00;111.88;;;48.03;;
50988;SDS011;37008;52.210;21.112;2024-01-10T09:37:26;110.18;;;49.25;;
50988;SDS011;37008;52.210;21.112;2024-01-10T09:39:52;106.90;;;47.45;;
50988;SDS011;37008;52.210;21.112;2024-01-10T09:42:29;106.65;;;49.35;;
50988;SDS011;37008;52.210;21.112;2024-01-10T09:44:56;105.53;;;46.40;;
50988;SDS011;37008;52.210;21.112;2024-01-10T09:47:25;112.50;;;48.53;;
50988;SDS011;37008;52.210;21.112;2024-01-10T09:50:02;109.13;;;46.58;;
50988;SDS011;37008;52.210;21.112;2024-01-10T09:52:39;116.63;;;50.53;;
50988;SDS011;37008;52.210;21.112;2024-01-10T09:55:22;109.53;;;48.80;;
50988;SDS011;37008;52.210;21.112;2024-01-10T09:57:48;108.68;;;48.13;;
50988;SDS011;37008;52.210;21.112;2024-01-10T10:00:15;104.10;;;50.67;;
50988;SDS011;37008;52.210;21.112;2024-01-10T10:02:41;107.15;;;48.53;;
50988;SDS011;37008;52.210;21.112;2024-01-10T10:07:43;118.30;;;47.78;;
50988;SDS011;37008;52.210;21.112;2024-01-10T10:10:10;113.30;;;49.42;;
50988;SDS011;37008;52.210;21.112;2024-01-10T10:12:47;116.00;;;50.50;;
50988;SDS011;37008;52.210;21.112;2024-01-10T10:15:15;112.57;;;49.55;;
50988;SDS011;37008;52.210;21.112;2024-01-10T10:17:44;106.10;;;51.33;;
50988;SDS011;37008;52.210;21.112;2024-01-10T10:20:27;104.38;;;51.13;;
50988;SDS011;37008;52.210;21.112;2024-01-10T10:23:03;104.15;;;49.70;;
50988;SDS011;37008;52.210;21.112;2024-01-10T10:25:30;110.85;;;49.13;;
50988;SDS011;37008;52.210;21.112;2024-01-10T10:27:57;110.63;;;48.67;;
50988;SDS011;37008;52.210;21.112;2024-01-10T10:30:23;112.28;;;49.13;;
50988;SDS011;37008;52.210;21.112;2024-01-10T10:32:49;111.68;;;49.85;;
50988;SDS011;37008;52.210;21.112;2024-01-10T10:35:15;109.72;;;49.25;;
50988;SDS011;37008;52.210;21.112;2024-01-10T10:37:41;109.43;;;48.47;;
50988;SDS011;37008;52.210;21.112;2024-01-10T10:40:06;98.20;;;44.70;;
50988;SDS011;37008;52.210;21.112;2024-01-10T10:42:36;101.32;;;45.83;;
50988;SDS011;37008;52.210;21.112;2024-01-10T10:45:09;102.13;;;46.67;;
50988;SDS011;37008;52.210;21.112;2024-01-10T10:47:37;105.38;;;45.58;;
50988;SDS011;37008;52.210;21.112;2024-01-10T10:50:08;103.97;;;47.92;;
50988;SDS011;37008;52.210;21.112;2024-01-10T10:52:38;100.38;;;45.75;;
50988;SDS011;37008;52.210;21.112;2024-01-10T10:55:10;100.32;;;45.75;;
50988;SDS011;37008;52.210;21.112;2024-01-10T10:57:38;111.18;;;47.92;;
50988;SDS011;37008;52.210;21.112;2024-01-10T11:00:05;104.53;;;46.58;;
50988;SDS011;37008;52.210;21.112;2024-01-10T11:02:32;103.25;;;49.10;;
50988;SDS011;37008;52.210;21.112;2024-01-10T11:04:58;100.75;;;47.63;;
50988;SDS011;37008;52.210;21.112;2024-01-10T11:07:26;103.45;;;47.67;;
50988;SDS011;37008;52.210;21.112;2024-01-10T11:09:52;99.53;;;45.22;;
50988;SDS011;37008;52.210;21.112;2024-01-10T11:12:38;99.20;;;45.75;;
50988;SDS011;37008;52.210;21.112;2024-01-10T11:15:39;84.57;;;41.45;;
50988;SDS011;37008;52.210;21.112;2024-01-10T11:18:15;104.22;;;46.10;;
50988;SDS011;37008;52.210;21.112;2024-01-10T11:23:49;101.57;;;45.55;;
50988;SDS011;37008;52.210;21.112;2024-01-10T11:26:16;100.97;;;48.03;;
50988;SDS011;37008;52.210;21.112;2024-01-10T11:28:44;105.90;;;50.85;;
50988;SDS011;37008;52.210;21.112;2024-01-10T11:31:10;111.82;;;48.33;;
50988;SDS011;37008;52.210;21.112;2024-01-10T11:33:39;104.15;;;47.50;;
50988;SDS011;37008;52.210;21.112;2024-01-10T11:36:10;82.30;;;37.25;;
50988;SDS011;37008;52.210;21.112;2024-01-10T11:38:53;105.57;;;47.72;;
50988;SDS011;37008;52.210;21.112;2024-01-10T11:41:29;107.88;;;47.88;;
50988;SDS011;37008;52.210;21.112;2024-01-10T11:46:40;100.90;;;49.08;;
50988;SDS011;37008;52.210;21.112;2024-01-10T11:49:10;112.00;;;51.85;;
50988;SDS011;37008;52.210;21.112;2024-01-10T11:51:52;110.72;;;48.95;;
50988;SDS011;37008;52.210;21.112;2024-01-10T11:54:35;104.97;;;49.30;;
50988;SDS011;37008;52.210;21.112;2024-01-10T11:57:12;103.80;;;48.97;;
50988;SDS011;37008;52.210;21.112;2024-01-10T11:59:54;103.30;;;47.75;;
50988;SDS011;37008;52.210;21.112;2024-01-10T12:02:21;102.03;;;48.67;;
50988;SDS011;37008;52.210;21.112;2024-01-10T12:04:48;102.00;;;47.63;;
50988;SDS011;37008;52.210;21.112;2024-01-10T12:07:21;97.65;;;48.53;;
50988;SDS011;37008;52.210;21.112;2024-01-10T12:09:52;102.53;;;47.53;;
50988;SDS011;37008;52.210;21.112;2024-01-10T12:12:20;105.38;;;48.58;;
50988;SDS011;37008;52.210;21.112;2024-01-10T12:14:46;103.18;;;50.15;;
50988;SDS011;37008;52.210;21.112;2024-01-10T12:17:11;104.80;;;49.20;;
50988;SDS011;37008;52.210;21.112;2024-01-10T12:19:37;110.05;;;50.85;;
50988;SDS011;37008;52.210;21.112;2024-01-10T12:22:06;98.75;;;46.25;;
50988;SDS011;37008;52.210;21.112;2024-01-10T12:24:32;109.90;;;49.95;;
50988;SDS011;37008;52.210;21.112;2024-01-10T12:26:58;99.00;;;46.13;;
50988;SDS011;37008;52.210;21.112;2024-01-10T12:29:23;108.65;;;49.00;;
50988;SDS011;37008;52.210;21.112;2024-01-10T12:31:50;108.47;;;49.15;;
50988;SDS011;37008;52.210;21.112;2024-01-10T12:34:19;108.70;;;51.00;;
50988;SDS011;37008;52.210;21.112;2024-01-10T12:36:46;115.88;;;50.00;;
50988;SDS011;37008;52.210;21.112;2024-01-10T12:39:12;75.20;;;37.25;;
50988;SDS011;37008;52.210;21.112;2024-01-10T12:41:38;106.20;;;47.72;;
50988;SDS011;37008;52.210;21.112;2024-01-10T12:44:06;105.53;;;50.42;;
50988;SDS011;37008;52.210;21.112;2024-01-10T12:46:32;103.00;;;47.45;;
50988;SDS011;37008;52.210;21.112;2024-01-10T12:48:58;102.05;;;48.50;;
50988;SDS011;37008;52.210;21.112;2024-01-10T12:51:29;108.68;;;48.72;;
50988;SDS011;37008;52.210;21.112;2024-01-10T12:53:56;107.93;;;47.10;;
50988;SDS011;37008;52.210;21.112;2024-01-10T12:56:24;109.55;;;50.60;;
50988;SDS011;37008;52.210;21.112;2024-01-10T12:58:50;94.88;;;46.38;;
50988;SDS011;37008;52.210;21.112;2024-01-10T13:01:15;105.13;;;49.75;;
50988;SDS011;37008;52.210;21.112;2024-01-10T13:03:41;102.78;;;48.03;;
50988;SDS011;37008;52.210;21.112;2024-01-10T13:06:07;106.00;;;48.00;;
50988;SDS011;37008;52.210;21.112;2024-01-10T13:08:34;108.07;;;50.10;;
50988;SDS011;37008;52.210;21.112;2024-01-10T13:11:00;100.85;;;46.10;;
50988;SDS011;37008;52.210;21.112;2024-01-10T13:13:25;102.30;;;48.20;;
50988;SDS011;37008;52.210;21.112;2024-01-10T13:15:51;100.85;;;46.95;;
50988;SDS011;37008;52.210;21.112;2024-01-10T13:18:17;108.72;;;46.92;;
50988;SDS011;37008;52.210;21.112;2024-01-10T13:20:43;98.82;;;49.63;;
50988;SDS011;37008;52.210;21.112;2024-01-10T13:23:09;102.82;;;45.97;;
50988;SDS011;37008;52.210;21.112;2024-01-10T13:25:35;99.13;;;49.08;;
50988;SDS011;37008;52.210;21.112;2024-01-10T13:28:02;97.40;;;46.75;;
50988;SDS011;37008;52.210;21.112;2024-01-10T13:30:29;104.93;;;49.08;;
50988;SDS011;37008;52.210;21.112;2024-01-10T13:32:55;106.18;;;47.95;;
50988;SDS011;37008;52.210;21.112;2024-01-10T13:35:21;105.68;;;47.25;;
50988;SDS011;37008;52.210;21.112;2024-01-10T13:37:47;96.75;;;47.08;;
50988;SDS011;37008;52.210;21.112;2024-01-10T13:40:13;92.20;;;42.50;;
50988;SDS011;37008;52.210;21.112;2024-01-10T13:42:39;101.53;;;48.63;;
50988;SDS011;37008;52.210;21.112;2024-01-10T13:45:05;100.10;;;47.58;;
50988;SDS011;37008;52.210;21.112;2024-01-10T13:47:32;101.65;;;47.63;;
50988;SDS011;37008;52.210;21.112;2024-01-10T13:49:59;102.03;;;47.30;;
50988;SDS011;37008;52.210;21.112;2024-01-10T13:52:26;96.60;;;46.05;;
50988;SDS011;37008;52.210;21.112;2024-01-10T13:54:51;107.80;;;48.35;;
50988;SDS011;37008;52.210;21.112;2024-01-10T13:57:17;103.13;;;49.00;;
50988;SDS011;37008;52.210;21.112;2024-01-10T13:59:43;102.78;;;47.03;;
50988;SDS011;37008;52.210;21.112;2024-01-10T14:02:12;101.40;;;50.20;;
50988;SDS011;37008;52.210;21.112;2024-01-10T14:04:40;106.45;;;49.85;;
50988;SDS011;37008;52.210;21.112;2024-01-10T14:07:07;104.35;;;50.38;;
50988;SDS011;37008;52.210;21.112;2024-01-10T14:09:32;106.47;;;48.65;;
50988;SDS011;37008;52.210;21.112;2024-01-10T14:11:59;106.50;;;48.05;;